createdAt,value
2018-05-13T00:01:16.042Z,17.80
2018-05-13T00:03:44.308Z,17.90
2018-05-13T00:06:13.451Z,17.90
2018-05-13T00:08:42.489Z,18.00
2018-05-13T00:11:10.724Z,18.00
2018-05-13T00:13:39.749Z,18.00
2018-05-13T00:16:07.979Z,17.90
2018-05-13T00:18:36.239Z,18.10
2018-05-13T00:21:05.176Z,18.30
2018-05-13T00:23:34.211Z,18.00
2018-05-13T00:26:02.453Z,18.00
2018-05-13T00:28:31.193Z,18.00
2018-05-13T00:30:59.452Z,17.90
2018-05-13T00:33:28.467Z,17.90
2018-05-13T00:35:56.709Z,17.90
2018-05-13T00:38:25.743Z,18.10
2018-05-13T00:40:54.013Z,18.00
2018-05-13T00:43:22.300Z,17.80
2018-05-13T00:45:51.412Z,17.80
2018-05-13T00:48:19.714Z,17.90
2018-05-13T00:50:47.940Z,18.00
2018-05-13T00:53:17.556Z,18.00
2018-05-13T00:55:46.584Z,17.90
2018-05-13T00:58:14.828Z,17.90
2018-05-13T01:00:43.904Z,17.60
2018-05-13T01:03:12.195Z,17.50
2018-05-13T01:05:40.493Z,17.50
2018-05-13T01:08:08.748Z,17.70
2018-05-13T01:10:37.057Z,17.60
2018-05-13T01:13:06.071Z,17.60
2018-05-13T01:15:35.090Z,17.60
2018-05-13T01:18:03.348Z,17.60
2018-05-13T01:20:31.652Z,17.80
2018-05-13T01:22:59.896Z,17.70
2018-05-13T01:25:28.161Z,17.70
2018-05-13T01:27:56.411Z,17.70
2018-05-13T01:30:24.693Z,17.50
2018-05-13T01:32:52.939Z,17.60
2018-05-13T01:35:21.199Z,17.50
2018-05-13T01:37:49.441Z,17.60
2018-05-13T01:40:18.465Z,17.60
2018-05-13T01:42:46.708Z,17.60
2018-05-13T01:45:14.980Z,17.70
2018-05-13T01:47:43.257Z,17.80
2018-05-13T01:50:11.511Z,17.80
2018-05-13T01:52:40.539Z,17.70
2018-05-13T01:55:08.812Z,17.60
2018-05-13T01:57:37.055Z,17.60
2018-05-13T02:00:05.345Z,17.60
2018-05-13T02:02:34.352Z,17.50
2018-05-13T02:05:03.395Z,17.50
2018-05-13T02:07:31.653Z,17.50
2018-05-13T02:09:59.906Z,17.40
2018-05-13T02:12:28.153Z,17.30
2018-05-13T02:14:56.412Z,17.40
2018-05-13T02:17:24.699Z,17.60
2018-05-13T02:19:53.540Z,17.50
2018-05-13T02:22:21.821Z,17.40
2018-05-13T02:24:50.127Z,17.60
2018-05-13T02:27:18.394Z,17.50
2018-05-13T02:29:52.078Z,17.80
2018-05-13T02:32:20.318Z,17.80
2018-05-13T02:34:48.576Z,17.70
2018-05-13T02:37:16.813Z,17.60
2018-05-13T02:39:45.084Z,17.60
2018-05-13T02:42:13.318Z,17.60
2018-05-13T02:44:41.600Z,17.30
2018-05-13T02:47:10.594Z,17.20
2018-05-13T02:49:40.352Z,17.40
2018-05-13T02:52:08.645Z,17.40
2018-05-13T02:54:36.896Z,17.60
2018-05-13T02:57:05.177Z,17.50
2018-05-13T02:59:33.441Z,17.40
2018-05-13T03:02:03.229Z,17.60
2018-05-13T03:04:31.473Z,17.50
2018-05-13T03:06:59.730Z,17.60
2018-05-13T03:09:27.967Z,17.30
2018-05-13T03:11:56.237Z,17.00
2018-05-13T03:14:24.980Z,16.90
2018-05-13T03:16:53.300Z,17.00
2018-05-13T03:19:21.558Z,16.80
2018-05-13T03:21:49.824Z,16.70
2018-05-13T03:24:18.149Z,16.80
2018-05-13T03:26:46.487Z,16.70
2018-05-13T03:29:14.755Z,16.70
2018-05-13T03:31:43.802Z,16.80
2018-05-13T03:34:12.060Z,16.80
2018-05-13T03:36:40.331Z,16.90
2018-05-13T03:39:08.561Z,17.00
2018-05-13T03:41:36.860Z,17.20
2018-05-13T03:44:05.101Z,17.30
2018-05-13T03:46:33.386Z,17.40
2018-05-13T03:49:01.677Z,17.50
2018-05-13T03:51:30.640Z,17.70
2018-05-13T03:53:59.752Z,17.70
2018-05-13T03:56:28.018Z,17.70
2018-05-13T03:58:56.250Z,17.50
2018-05-13T04:01:25.324Z,17.60
2018-05-13T04:03:53.569Z,17.80
2018-05-13T04:06:22.680Z,17.90
2018-05-13T04:09:03.485Z,17.90
2018-05-13T04:11:43.564Z,17.90
2018-05-13T04:14:23.690Z,17.90
2018-05-13T04:16:51.952Z,17.80
2018-05-13T04:19:20.216Z,17.80
2018-05-13T04:21:48.480Z,17.70
2018-05-13T04:24:17.492Z,17.80
2018-05-13T04:26:45.763Z,17.80
2018-05-13T04:29:14.008Z,17.80
2018-05-13T04:31:43.045Z,17.70
2018-05-13T04:34:12.047Z,17.70
2018-05-13T04:36:40.914Z,17.70
2018-05-13T04:39:09.197Z,17.60
2018-05-13T04:41:38.232Z,17.70
2018-05-13T04:44:06.479Z,17.60
2018-05-13T04:46:35.512Z,17.70
2018-05-13T04:49:03.764Z,17.60
2018-05-13T04:51:32.784Z,17.70
2018-05-13T04:54:01.019Z,17.70
2018-05-13T04:56:29.272Z,17.70
2018-05-13T04:58:57.534Z,17.70
2018-05-13T05:01:25.798Z,17.70
2018-05-13T05:03:54.033Z,17.90
2018-05-13T05:06:22.316Z,17.90
2018-05-13T05:08:50.559Z,18.10
2018-05-13T05:11:18.800Z,18.10
2018-05-13T05:13:47.069Z,18.10
2018-05-13T05:16:15.995Z,18.30
2018-05-13T05:18:45.030Z,18.40
2018-05-13T05:21:13.271Z,18.40
2018-05-13T05:23:42.395Z,18.70
2018-05-13T05:26:11.383Z,18.70
2018-05-13T05:28:40.243Z,18.60
2018-05-13T05:31:08.493Z,18.20
2018-05-13T05:33:36.755Z,18.10
2018-05-13T05:36:05.004Z,18.20
2018-05-13T05:38:34.028Z,18.20
2018-05-13T05:41:02.404Z,18.20
2018-05-13T05:43:31.388Z,18.20
2018-05-13T05:46:00.425Z,18.20
2018-05-13T05:48:29.040Z,18.20
2018-05-13T05:50:57.151Z,18.40
2018-05-13T05:53:26.280Z,18.70
2018-05-13T05:55:54.536Z,18.70
2018-05-13T05:58:26.611Z,18.80
2018-05-13T06:00:54.877Z,18.80
2018-05-13T06:03:23.904Z,19.00
2018-05-13T06:05:52.271Z,19.00
2018-05-13T06:08:21.312Z,19.20
2018-05-13T06:10:49.570Z,19.20
2018-05-13T06:13:17.832Z,19.40
2018-05-13T06:15:46.868Z,19.80
2018-05-13T06:18:15.125Z,19.80
2018-05-13T06:20:43.377Z,20.10
2018-05-13T06:23:11.646Z,20.30
2018-05-13T06:25:39.923Z,20.40
2018-05-13T06:28:08.188Z,20.50
2018-05-13T06:30:36.441Z,20.60
2018-05-13T06:33:04.688Z,20.70
2018-05-13T06:35:34.220Z,21.10
2018-05-13T06:38:02.499Z,21.10
2018-05-13T06:40:32.134Z,21.40
2018-05-13T06:43:00.419Z,21.30
2018-05-13T06:45:29.291Z,21.50
2018-05-13T06:47:57.583Z,21.40
2018-05-13T06:50:25.867Z,21.40
2018-05-13T06:52:54.117Z,21.50
2018-05-13T06:55:23.166Z,22.00
2018-05-13T06:57:51.433Z,22.00
2018-05-13T07:00:19.700Z,22.40
2018-05-13T07:02:47.988Z,22.60
2018-05-13T07:05:17.013Z,23.20
2018-05-13T07:07:46.131Z,23.20
2018-05-13T07:10:14.441Z,23.40
2018-05-13T07:12:43.960Z,23.40
2018-05-13T07:15:13.596Z,23.10
2018-05-13T07:17:41.843Z,23.10
2018-05-13T07:20:10.918Z,22.60
2018-05-13T07:22:40.070Z,22.50
2018-05-13T07:25:08.321Z,22.60
2018-05-13T07:27:36.585Z,22.60
2018-05-13T07:30:05.577Z,22.60
2018-05-13T07:32:33.820Z,22.10
2018-05-13T07:35:02.088Z,22.00
2018-05-13T07:37:30.346Z,22.40
2018-05-13T07:39:58.880Z,22.90
2018-05-13T07:42:27.239Z,23.30
2018-05-13T07:44:56.236Z,23.70
2018-05-13T07:47:24.629Z,23.70
2018-05-13T07:49:52.999Z,23.90
2018-05-13T07:52:22.628Z,23.70
2018-05-13T07:54:50.903Z,23.70
2018-05-13T07:57:20.045Z,23.60
2018-05-13T07:59:48.398Z,23.60
2018-05-13T08:02:16.741Z,23.50
2018-05-13T08:04:45.824Z,23.20
2018-05-13T08:07:14.081Z,23.20
2018-05-13T08:09:42.346Z,23.20
2018-05-13T08:12:10.672Z,23.00
2018-05-13T08:14:38.920Z,22.80
2018-05-13T08:17:07.973Z,22.80
2018-05-13T08:19:37.000Z,22.60
2018-05-13T08:22:05.895Z,22.60
2018-05-13T08:24:34.292Z,22.60
2018-05-13T08:27:02.601Z,22.40
2018-05-13T08:29:30.875Z,22.50
2018-05-13T08:31:59.143Z,22.60
2018-05-13T08:34:27.385Z,22.80
2018-05-13T08:36:55.723Z,23.20
2018-05-13T08:39:23.969Z,23.40
2018-05-13T08:41:52.336Z,23.50
2018-05-13T08:44:20.497Z,23.60
2018-05-13T08:46:49.612Z,23.40
2018-05-13T08:49:17.877Z,23.40
2018-05-13T08:51:46.725Z,23.20
2018-05-13T08:54:14.960Z,22.90
2018-05-13T08:56:43.988Z,22.40
2018-05-13T08:59:12.263Z,22.40
2018-05-13T09:01:40.547Z,22.10
2018-05-13T09:04:08.880Z,22.00
2018-05-13T09:06:37.166Z,21.80
2018-05-13T09:09:05.437Z,21.60
2018-05-13T09:11:33.761Z,21.50
2018-05-13T09:14:03.463Z,21.10
2018-05-13T09:16:31.692Z,21.10
2018-05-13T09:18:59.955Z,20.80
2018-05-13T09:21:28.211Z,20.80
2018-05-13T09:23:57.231Z,20.60
2018-05-13T09:26:25.507Z,20.50
2018-05-13T09:28:53.776Z,20.50
2018-05-13T09:31:22.800Z,20.40
2018-05-13T09:33:51.050Z,20.30
2018-05-13T09:36:20.069Z,20.60
2018-05-13T09:38:48.428Z,20.60
2018-05-13T09:41:17.483Z,20.80
2018-05-13T09:43:45.707Z,20.80
2018-05-13T09:46:14.744Z,20.80
2018-05-13T09:48:43.019Z,20.70
2018-05-13T09:51:12.095Z,20.90
2018-05-13T09:53:40.320Z,21.10
2018-05-13T09:56:09.317Z,21.10
2018-05-13T09:58:37.567Z,20.80
2018-05-13T10:01:05.905Z,20.80
2018-05-13T10:03:34.148Z,20.80
2018-05-13T10:06:02.451Z,21.20
2018-05-13T10:08:31.483Z,21.50
2018-05-13T10:10:59.743Z,21.60
2018-05-13T10:13:28.061Z,21.10
2018-05-13T10:15:57.837Z,21.20
2018-05-13T10:18:26.872Z,21.40
2018-05-13T10:20:55.884Z,21.30
2018-05-13T10:23:24.190Z,21.30
2018-05-13T10:25:52.437Z,21.30
2018-05-13T10:28:21.507Z,21.00
2018-05-13T10:30:50.676Z,21.00
2018-05-13T10:33:19.680Z,20.60
2018-05-13T10:35:48.496Z,20.60
2018-05-13T10:38:16.760Z,20.40
2018-05-13T10:40:45.045Z,20.50
2018-05-13T10:43:13.355Z,20.40
2018-05-13T10:45:41.589Z,20.20
2018-05-13T10:48:09.851Z,20.40
2018-05-13T10:50:38.145Z,20.30
2018-05-13T10:53:06.409Z,20.30
2018-05-13T10:55:34.652Z,20.10
2018-05-13T10:58:02.952Z,20.10
2018-05-13T11:00:32.028Z,19.60
2018-05-13T11:03:00.291Z,19.60
2018-05-13T11:05:28.536Z,19.50
2018-05-13T11:07:56.806Z,19.50
2018-05-13T11:10:26.965Z,19.30
2018-05-13T11:12:55.345Z,19.30
2018-05-13T11:15:25.049Z,19.10
2018-05-13T11:17:53.328Z,18.80
2018-05-13T11:20:21.569Z,18.60
2018-05-13T11:22:49.852Z,18.50
2018-05-13T11:25:18.130Z,18.50
2018-05-13T11:27:46.392Z,18.40
2018-05-13T11:30:14.624Z,18.20
2018-05-13T11:32:42.899Z,18.30
2018-05-13T11:35:11.152Z,18.30
2018-05-13T11:37:39.440Z,18.30
2018-05-13T11:40:08.252Z,18.20
2018-05-13T11:42:37.273Z,17.90
2018-05-13T11:45:06.913Z,17.80
2018-05-13T11:47:35.176Z,17.70
2018-05-13T11:50:03.425Z,17.70
2018-05-13T11:52:32.456Z,17.90
2018-05-13T11:55:00.688Z,17.90
2018-05-13T11:57:28.951Z,17.70
2018-05-13T11:59:57.971Z,17.60
2018-05-13T12:02:27.277Z,17.40
2018-05-13T12:04:55.543Z,17.40
2018-05-13T12:07:23.852Z,17.50
2018-05-13T12:09:52.868Z,17.50
2018-05-13T12:12:21.123Z,17.40
2018-05-13T12:14:50.152Z,17.40
2018-05-13T12:17:18.413Z,17.40
2018-05-13T12:19:46.675Z,17.30
2018-05-13T12:22:14.903Z,17.20
2018-05-13T12:24:43.165Z,17.20
2018-05-13T12:27:12.236Z,16.90
2018-05-13T12:29:41.267Z,16.70
2018-05-13T12:32:10.253Z,16.50
2018-05-13T12:34:39.307Z,16.70
2018-05-13T12:37:07.572Z,16.70
2018-05-13T12:39:35.824Z,16.90
2018-05-13T12:42:04.075Z,16.90
2018-05-13T12:44:32.388Z,16.80
2018-05-13T12:47:01.473Z,16.60
2018-05-13T12:49:30.498Z,16.70
2018-05-13T12:51:59.251Z,16.70
2018-05-13T12:54:27.709Z,16.60
2018-05-13T12:56:57.243Z,16.60
2018-05-13T12:59:25.524Z,16.60
2018-05-13T13:01:53.757Z,16.70
2018-05-13T13:04:22.008Z,16.60
2018-05-13T13:06:50.300Z,16.80
2018-05-13T13:09:18.561Z,17.00
2018-05-13T13:11:47.675Z,16.70
2018-05-13T13:14:16.708Z,16.70
2018-05-13T13:16:44.951Z,16.70
2018-05-13T13:19:14.811Z,16.70
2018-05-13T13:21:43.044Z,16.70
2018-05-13T13:24:12.808Z,16.80
2018-05-13T13:26:41.107Z,16.80
2018-05-13T13:29:09.577Z,16.90
2018-05-13T13:31:37.845Z,17.00
2018-05-13T13:34:06.094Z,17.20
2018-05-13T13:36:35.269Z,17.00
2018-05-13T13:39:04.264Z,17.00
2018-05-13T13:41:32.509Z,17.00
2018-05-13T13:44:00.757Z,17.00
2018-05-13T13:46:29.775Z,16.70
2018-05-13T13:48:58.269Z,16.70
2018-05-13T13:51:26.498Z,16.70
2018-05-13T13:53:54.786Z,16.60
2018-05-13T13:56:23.056Z,16.30
2018-05-13T13:58:51.301Z,16.40
2018-05-13T14:01:19.551Z,16.40
2018-05-13T14:03:47.811Z,16.40
2018-05-13T14:06:16.072Z,16.20
2018-05-13T14:08:44.300Z,16.20
2018-05-13T14:11:12.572Z,16.30
2018-05-13T14:13:41.694Z,16.20
2018-05-13T14:16:09.958Z,16.20
2018-05-13T14:18:38.197Z,16.10
2018-05-13T14:21:06.497Z,16.30
2018-05-13T14:23:34.757Z,16.30
2018-05-13T14:26:03.007Z,16.30
2018-05-13T14:28:31.360Z,16.30
2018-05-13T14:31:00.395Z,16.50
2018-05-13T14:33:28.658Z,16.50
2018-05-13T14:35:57.105Z,16.70
2018-05-13T14:38:25.515Z,17.00
2018-05-13T14:40:54.636Z,17.40
2018-05-13T14:43:22.784Z,17.40
2018-05-13T14:45:52.545Z,17.50
2018-05-13T14:48:20.797Z,17.40
2018-05-13T14:50:49.068Z,17.50
2018-05-13T14:53:17.323Z,17.70
2018-05-13T14:55:46.480Z,17.70
2018-05-13T14:58:16.184Z,17.60
2018-05-13T15:00:44.431Z,17.60
2018-05-13T15:03:13.467Z,17.70
2018-05-13T15:05:41.807Z,17.60
2018-05-13T15:08:10.024Z,17.80
2018-05-13T15:10:38.297Z,17.70
2018-05-13T15:13:07.132Z,17.90
2018-05-13T15:15:35.397Z,18.00
2018-05-13T15:18:03.651Z,17.70
2018-05-13T15:20:31.940Z,17.50
2018-05-13T15:23:00.188Z,17.60
2018-05-13T15:25:28.904Z,17.60
2018-05-13T15:27:57.164Z,17.50
2018-05-13T15:30:26.227Z,17.40
2018-05-13T15:32:54.454Z,17.30
2018-05-13T15:35:23.509Z,17.30
2018-05-13T15:37:52.479Z,17.30
2018-05-13T15:40:20.740Z,17.50
2018-05-13T15:42:49.894Z,17.70
2018-05-13T15:45:18.053Z,17.60
2018-05-13T15:47:46.345Z,17.70
2018-05-13T15:50:14.592Z,17.70
2018-05-13T15:52:42.873Z,17.40
2018-05-13T15:55:11.652Z,17.50
2018-05-13T15:57:39.916Z,17.40
2018-05-13T16:00:08.198Z,17.40
2018-05-13T16:02:36.448Z,17.40
2018-05-13T16:05:04.708Z,17.40
2018-05-13T16:07:33.012Z,17.40
2018-05-13T16:10:02.117Z,17.60
2018-05-13T16:12:31.934Z,17.60
2018-05-13T16:15:00.185Z,17.50
2018-05-13T16:17:28.421Z,17.60
2018-05-13T16:19:56.696Z,17.50
2018-05-13T16:22:29.584Z,17.50
2018-05-13T16:24:58.795Z,17.40
2018-05-13T16:27:27.790Z,17.30
2018-05-13T16:29:56.105Z,17.30
2018-05-13T16:32:25.082Z,17.40
2018-05-13T16:34:54.876Z,17.20
2018-05-13T16:37:23.216Z,17.20
2018-05-13T16:39:51.748Z,17.50
2018-05-13T16:42:20.030Z,17.40
2018-05-13T16:44:48.274Z,17.30
2018-05-13T16:47:16.541Z,17.20
2018-05-13T16:49:44.787Z,17.20
2018-05-13T16:52:13.850Z,17.40
2018-05-13T16:54:42.131Z,17.40
2018-05-13T16:57:10.380Z,17.10
2018-05-13T16:59:38.624Z,17.40
2018-05-13T17:02:06.887Z,17.50
2018-05-13T17:04:35.939Z,17.50
2018-05-13T17:07:04.232Z,17.50
2018-05-13T17:09:32.501Z,17.60
2018-05-13T17:12:00.737Z,17.60
2018-05-13T17:14:29.003Z,17.50
2018-05-13T17:16:57.256Z,17.50
2018-05-13T17:19:25.831Z,17.40
2018-05-13T17:21:54.041Z,17.30
2018-05-13T17:24:22.330Z,17.20
2018-05-13T17:26:50.576Z,17.20
2018-05-13T17:29:18.856Z,17.20
2018-05-13T17:31:47.131Z,17.40
2018-05-13T17:34:15.471Z,17.40
2018-05-13T17:36:45.192Z,17.20
2018-05-13T17:39:13.490Z,17.20
2018-05-13T17:41:41.708Z,17.30
2018-05-13T17:44:10.055Z,17.10
2018-05-13T17:46:39.133Z,17.30
2018-05-13T17:49:07.401Z,17.30
2018-05-13T17:51:35.617Z,17.30
2018-05-13T17:54:04.636Z,17.20
2018-05-13T17:56:32.921Z,17.20
2018-05-13T17:59:01.953Z,17.30
2018-05-13T18:01:30.223Z,17.20
2018-05-13T18:03:58.486Z,17.10
2018-05-13T18:06:26.711Z,16.90
2018-05-13T18:08:54.974Z,17.20
2018-05-13T18:11:23.231Z,17.30
2018-05-13T18:13:51.504Z,17.10
2018-05-13T18:16:19.756Z,17.20
2018-05-13T18:18:48.011Z,17.20
2018-05-13T18:21:16.289Z,17.10
2018-05-13T18:23:44.545Z,17.20
2018-05-13T18:26:13.298Z,17.00
2018-05-13T18:28:48.700Z,16.70
2018-05-13T18:31:16.933Z,16.60
2018-05-13T18:33:46.680Z,17.10
2018-05-13T18:36:14.914Z,17.10
2018-05-13T18:38:44.008Z,17.00
2018-05-13T18:41:12.252Z,16.80
2018-05-13T18:43:40.523Z,17.00
2018-05-13T18:46:08.779Z,17.40
2018-05-13T18:48:37.804Z,17.00
2018-05-13T18:51:06.124Z,17.00
2018-05-13T18:53:34.423Z,16.90
2018-05-13T18:56:02.679Z,16.80
2018-05-13T18:58:30.988Z,17.00
2018-05-13T19:00:59.248Z,17.10
2018-05-13T19:03:27.525Z,16.80
2018-05-13T19:05:55.799Z,16.80
2018-05-13T19:08:24.098Z,16.50
2018-05-13T19:10:52.349Z,16.70
2018-05-13T19:13:20.621Z,16.50
2018-05-13T19:15:48.984Z,16.70
2018-05-13T19:18:17.277Z,16.40
2018-05-13T19:20:45.539Z,16.10
2018-05-13T19:23:13.810Z,16.30
2018-05-13T19:25:42.843Z,16.50
2018-05-13T19:28:11.176Z,16.50
2018-05-13T19:30:39.480Z,16.40
2018-05-13T19:33:08.533Z,16.40
2018-05-13T19:35:36.792Z,16.40
2018-05-13T19:38:05.077Z,16.30
2018-05-13T19:40:33.353Z,16.30
2018-05-13T19:43:01.629Z,16.50
2018-05-13T19:45:29.890Z,16.30
2018-05-13T19:47:58.923Z,16.70
2018-05-13T19:50:27.193Z,16.60
2018-05-13T19:52:55.437Z,16.60
2018-05-13T19:55:24.496Z,16.50
2018-05-13T19:57:52.770Z,16.50
2018-05-13T20:00:21.035Z,16.30
2018-05-13T20:02:49.457Z,16.30
2018-05-13T20:05:17.631Z,16.20
2018-05-13T20:07:45.886Z,16.20
2018-05-13T20:10:14.659Z,16.30
2018-05-13T20:12:44.282Z,16.40
2018-05-13T20:15:12.570Z,16.30
2018-05-13T20:17:40.815Z,16.30
2018-05-13T20:20:09.849Z,16.40
2018-05-13T20:25:44.148Z,16.60
2018-05-13T20:28:13.161Z,16.60
2018-05-13T20:30:41.436Z,16.70
2018-05-13T20:33:09.725Z,16.40
2018-05-13T20:35:38.004Z,16.30
2018-05-13T20:38:06.242Z,16.30
2018-05-13T20:40:34.537Z,16.20
2018-05-13T20:43:03.637Z,16.30
2018-05-13T20:45:32.687Z,16.40
2018-05-13T20:48:00.960Z,16.30
2018-05-13T20:50:29.513Z,16.30
2018-05-13T20:52:57.766Z,16.30
2018-05-13T20:55:26.013Z,16.30
2018-05-13T20:57:55.169Z,16.40
2018-05-13T21:00:24.725Z,16.30
2018-05-13T21:02:52.971Z,16.20
2018-05-13T21:05:22.069Z,16.30
2018-05-13T21:07:50.260Z,16.30
2018-05-13T21:10:18.530Z,16.50
2018-05-13T21:12:47.560Z,16.20
2018-05-13T21:15:15.820Z,16.20
2018-05-13T21:17:44.872Z,16.50
2018-05-13T21:20:13.165Z,16.40
2018-05-13T21:22:41.409Z,16.40
2018-05-13T21:25:09.692Z,16.30
2018-05-13T21:27:37.968Z,16.10
2018-05-13T21:30:06.312Z,16.50
2018-05-13T21:32:35.246Z,16.70
2018-05-13T21:35:03.885Z,16.70
2018-05-13T21:37:32.164Z,16.60
2018-05-13T21:40:00.411Z,16.50
2018-05-13T21:42:28.740Z,16.40
2018-05-13T21:44:57.776Z,16.20
2018-05-13T21:47:26.065Z,16.20
2018-05-13T21:49:54.405Z,16.20
2018-05-13T21:52:23.456Z,16.20
2018-05-13T21:54:51.713Z,16.20
2018-05-13T21:57:19.985Z,16.20
2018-05-13T21:59:48.999Z,16.20
2018-05-13T22:02:17.376Z,16.20
2018-05-13T22:04:56.924Z,16.40
2018-05-13T22:07:25.212Z,16.30
2018-05-13T22:09:53.448Z,16.30
2018-05-13T22:12:22.528Z,16.10
2018-05-13T22:14:50.848Z,16.00
2018-05-13T22:17:19.853Z,16.10
2018-05-13T22:19:48.593Z,16.00
2018-05-13T22:22:16.827Z,16.00
2018-05-13T22:24:45.197Z,16.30
2018-05-13T22:27:14.208Z,16.20
2018-05-13T22:29:42.472Z,16.20
2018-05-13T22:32:11.511Z,16.00
2018-05-13T22:34:39.771Z,16.00
2018-05-13T22:37:08.023Z,16.00
2018-05-13T22:39:37.028Z,16.00
2018-05-13T22:42:06.049Z,16.10
2018-05-13T22:44:34.328Z,16.10
2018-05-13T22:47:02.651Z,16.10
2018-05-13T22:49:30.840Z,16.10
2018-05-13T22:51:59.555Z,16.10
2018-05-13T22:54:29.345Z,16.30
2018-05-13T22:56:57.618Z,16.30
2018-05-13T22:59:25.848Z,16.30
2018-05-13T23:01:54.873Z,16.30
2018-05-13T23:04:23.201Z,16.30
2018-05-13T23:06:51.399Z,16.60
2018-05-13T23:09:20.429Z,16.40
2018-05-13T23:11:48.680Z,16.40
2018-05-13T23:14:17.739Z,16.10
2018-05-13T23:16:46.021Z,16.10
2018-05-13T23:19:14.255Z,16.60
2018-05-13T23:21:42.510Z,16.70
2018-05-13T23:24:11.511Z,16.60
2018-05-13T23:26:40.517Z,16.40
2018-05-13T23:29:09.554Z,16.60
2018-05-13T23:31:37.788Z,16.60
2018-05-13T23:34:06.840Z,16.30
2018-05-13T23:36:35.077Z,16.30
2018-05-13T23:39:04.112Z,16.00
2018-05-13T23:41:32.882Z,15.90
2018-05-13T23:44:01.900Z,16.40
2018-05-13T23:46:30.145Z,16.40
2018-05-13T23:48:59.183Z,16.30
2018-05-13T23:51:27.445Z,16.40
2018-05-13T23:53:56.509Z,15.90
2018-05-13T23:56:24.751Z,15.90
2018-05-13T23:58:53.011Z,16.20
